El Kheiter, Algeria

3:41 PM CET on April 21, 2015 (GMT +0100)
Mecheria | | Change Station
CLOSE
Current Station
Airport
Location: Mecheria,
Elevation: 3852 ft
Nearby Weather Stations

Elev 3852 ft 33.53 °N, 0.25 °W | Updated 41 minutes ago

Blowing Sand
Blowing Sand
90 °F
Feels Like 90 °F
N
18
Wind Variable Wind from West

Today
High -- | Low -- °F
--% Chance of Precip.
Yesterday
High -- | Low -- °F
Precip. -- in
6:21 AM 7:35 PM
Waxing Crescent, 11% visible
Pressure 30.12 in
Visibility 1.2 miles
Clouds Scattered Clouds 3000 ft
Dew Point 41 °F
Humidity 18%
Rainfall 0.00 in
Snow Depth Not available.
UV 8 out of 12
Pollen Not available.
Air Quality Not available.
Flu Activity Not available.
METAR DAAY 211400Z 26016KT 2000 BLSA SCT030 32/05 Q1020

More Conditions Fewer Conditions

Pressure 30.12 in
Visibility 1.2 miles
Clouds Scattered Clouds 3000 ft
Dew Point 41 °F
Humidity 18%
Rainfall 0.00 in
Snow Depth Not available.
UV 8 out of 12
Pollen Not available.
Air Quality Not available.
Flu Activity Not available.
METAR DAAY 211400Z 26016KT 2000 BLSA SCT030 32/05 Q1020

More Conditions Fewer Conditions

10-Day Weather Forecast

Almanac

Astronomy

Apr. 21, 2015 Rise Set
Actual Time
Civil Twilight
Nautical Twilight
Astronomical Twilight
Moon
Length of Visible Light
Length of Day
Tomorrow will be .
, % of the Moon is Illuminated

Today's Extremes

Country Highs Country Lows

Community

WunderPhotos

Upload Photos

1,815,413 photos uploaded!

WunderBlogs® & News

Nearby

Air Quality

  Air Quality AQ Index Pollutant
Not available.

Snow Depth

Station Depth Elevation

Earthquake Activity

City Distance Mag. Time & Date
Minimum magnitude displayed is 2.5.

Coastal Water Temperatures

Place Temperature

Stations

Nearby Weather Stations

Station Location Temp. Windchill Dew Point Humidity Wind Precip. Elev Updated Type